Time,TemperatureF,DewpointF,PressureIn,WindDirection,WindDirectionDegrees,WindSpeedMPH,WindSpeedGustMPH,Humidity,HourlyPrecipIn,Conditions,Clouds,dailyrainin,SoftwareType,DateUTC
2013-07-10 00:00:00,68.0,21.6,0.00,NNW,335,2.2,4.0,17,0.00,,,0.00,VWS V13.01,2013-07-10 07:00:00,
2013-07-10 00:05:00,68.0,21.6,0.00,North,357,0.0,3.6,17,0.00,,,0.00,VWS V13.01,2013-07-10 07:05:00,
2013-07-10 00:10:00,67.8,21.5,0.00,NNW,333,0.0,3.6,17,0.00,,,0.00,VWS V13.01,2013-07-10 07:10:00,
2013-07-10 00:15:00,67.6,21.3,0.00,North,353,0.0,3.6,17,0.00,,,0.00,VWS V13.01,2013-07-10 07:15:00,
2013-07-10 00:20:00,67.6,21.3,0.00,North,4,0.0,3.6,17,0.00,,,0.00,VWS V13.01,2013-07-10 07:20:00,
2013-07-10 00:25:00,67.5,18.2,0.00,NNW,341,0.0,3.6,15,0.00,,,0.00,VWS V13.01,2013-07-10 07:25:00,
2013-07-10 00:30:00,67.5,18.2,0.00,NNW,331,0.0,3.6,15,0.00,,,0.00,VWS V13.01,2013-07-10 07:30:00,
2013-07-10 00:35:00,67.5,18.2,0.00,NNW,330,2.7,3.6,15,0.00,,,0.00,VWS V13.01,2013-07-10 07:35:00,
2013-07-10 00:40:00,67.3,18.1,0.00,NW,307,3.1,5.4,15,0.00,,,0.00,VWS V13.01,2013-07-10 07:40:00,
2013-07-10 00:45:00,67.3,18.1,0.00,North,1,0.0,3.1,15,0.00,,,0.00,VWS V13.01,2013-07-10 07:45:00,
2013-07-10 00:50:00,67.1,17.9,0.00,NNW,331,0.0,3.1,15,0.00,,,0.00,VWS V13.01,2013-07-10 07:50:00,
2013-07-10 00:55:00,66.7,17.6,0.00,WNW,299,3.1,4.0,15,0.00,,,0.00,VWS V13.01,2013-07-10 07:55:00,
2013-07-10 01:00:00,66.6,17.5,0.00,WNW,295,2.7,3.1,15,0.00,,,0.00,VWS V13.01,2013-07-10 08:00:00,
2013-07-10 01:05:00,66.4,17.4,0.00,North,8,2.7,4.0,15,0.00,,,0.00,VWS V13.01,2013-07-10 08:05:00,
2013-07-10 01:10:00,66.2,17.2,0.00,NNW,333,2.7,4.0,15,0.00,,,0.00,VWS V13.01,2013-07-10 08:10:00,
2013-07-10 01:17:00,66.0,17.1,0.00,North,10,2.7,4.0,15,0.00,,,0.00,VWS V13.01,2013-07-10 08:17:00,
2013-07-10 01:18:00,66.0,17.1,0.00,NNW,333,2.2,4.0,15,0.00,,,0.00,VWS V13.01,2013-07-10 08:18:00,
2013-07-10 01:23:00,65.8,16.9,0.00,NNW,330,0.0,4.0,15,0.00,,,0.00,VWS V13.01,2013-07-10 08:23:00,
2013-07-10 01:28:00,65.7,16.8,0.00,NNW,327,0.0,4.0,15,0.00,,,0.00,VWS V13.01,2013-07-10 08:28:00,
2013-07-10 01:33:00,65.3,16.5,0.00,NW,319,0.0,4.0,15,0.00,,,0.00,VWS V13.01,2013-07-10 08:33:00,
2013-07-10 01:38:00,65.1,20.6,0.00,NNW,332,0.0,4.0,18,0.00,,,0.00,VWS V13.01,2013-07-10 08:38:00,
2013-07-10 01:43:00,64.9,16.2,0.00,NW,325,0.0,0.0,15,0.00,,,0.00,VWS V13.01,2013-07-10 08:43:00,
2013-07-10 01:48:00,64.9,20.4,0.00,NNW,346,0.0,0.0,18,0.00,,,0.00,VWS V13.01,2013-07-10 08:48:00,
2013-07-10 01:53:00,64.8,20.3,0.00,NNW,332,0.0,0.0,18,0.00,,,0.00,VWS V13.01,2013-07-10 08:53:00,
2013-07-10 01:58:00,64.4,20.0,0.00,WNW,293,0.0,0.0,18,0.00,,,0.00,VWS V13.01,2013-07-10 08:58:00,
2013-07-10 02:03:00,64.2,19.9,0.00,WNW,291,0.0,0.0,18,0.00,,,0.00,VWS V13.01,2013-07-10 09:03:00,
2013-07-10 02:08:00,63.9,19.6,0.00,NNW,348,0.0,0.0,18,0.00,,,0.00,VWS V13.01,2013-07-10 09:08:00,
2013-07-10 02:13:00,63.9,23.2,0.00,North,11,2.7,3.6,21,0.00,,,0.00,VWS V13.01,2013-07-10 09:13:00,
2013-07-10 02:18:00,64.0,23.3,0.00,North,0,0.0,3.6,21,0.00,,,0.00,VWS V13.01,2013-07-10 09:18:00,
2013-07-10 02:23:00,63.9,23.2,0.00,NNW,348,0.0,2.2,21,0.00,,,0.00,VWS V13.01,2013-07-10 09:23:00,
2013-07-10 02:28:00,64.0,26.5,0.00,NE,51,0.0,2.2,24,0.00,,,0.00,VWS V13.01,2013-07-10 09:28:00,
2013-07-10 02:33:00,64.0,26.5,0.00,WSW,237,0.0,2.2,24,0.00,,,0.00,VWS V13.01,2013-07-10 09:33:00,
2013-07-10 02:38:00,63.9,26.4,0.00,SW,230,0.0,2.2,24,0.00,,,0.00,VWS V13.01,2013-07-10 09:38:00,
2013-07-10 02:43:00,63.7,26.2,0.00,North,7,0.0,0.0,24,0.00,,,0.00,VWS V13.01,2013-07-10 09:43:00,
2013-07-10 02:48:00,63.5,26.1,0.00,North,7,0.0,0.0,24,0.00,,,0.00,VWS V13.01,2013-07-10 09:48:00,
2013-07-10 02:53:00,63.3,25.9,0.00,ENE,70,0.0,0.0,24,0.00,,,0.00,VWS V13.01,2013-07-10 09:53:00,
2013-07-10 02:58:00,63.3,25.9,0.00,North,350,0.0,0.0,24,0.00,,,0.00,VWS V13.01,2013-07-10 09:58:00,
2013-07-10 03:03:00,63.3,25.9,0.00,ESE,112,0.0,0.0,24,0.00,,,0.00,VWS V13.01,2013-07-10 10:03:00,
2013-07-10 03:08:00,63.0,25.6,0.00,SSE,153,0.0,0.0,24,0.00,,,0.00,VWS V13.01,2013-07-10 10:08:00,
2013-07-10 03:13:00,62.6,25.3,0.00,SSE,153,0.0,0.0,24,0.00,,,0.00,VWS V13.01,2013-07-10 10:13:00,
2013-07-10 03:18:00,62.2,26.0,0.00,SSE,153,0.0,0.0,25,0.00,,,0.00,VWS V13.01,2013-07-10 10:18:00,
2013-07-10 03:23:00,61.9,28.4,0.00,SSE,148,0.0,0.0,28,0.00,,,0.00,VWS V13.01,2013-07-10 10:23:00,
2013-07-10 03:28:00,61.3,30.5,0.00,SSE,148,0.0,0.0,31,0.00,,,0.00,VWS V13.01,2013-07-10 10:28:00,
2013-07-10 03:33:00,61.0,32.4,0.00,SSE,159,2.2,3.1,34,0.00,,,0.00,VWS V13.01,2013-07-10 10:33:00,
2013-07-10 03:38:00,60.6,32.1,0.00,South,175,0.0,3.1,34,0.00,,,0.00,VWS V13.01,2013-07-10 10:38:00,
2013-07-10 03:43:00,60.4,33.4,0.00,SSE,149,4.9,4.9,36,0.00,,,0.00,VWS V13.01,2013-07-10 10:43:00,
2013-07-10 03:48:00,60.4,34.7,0.00,SSE,151,2.7,4.9,38,0.00,,,0.00,VWS V13.01,2013-07-10 10:48:00,
2013-07-10 03:53:00,60.3,35.2,0.00,SSE,160,3.6,4.9,39,0.00,,,0.00,VWS V13.01,2013-07-10 10:53:00,
2013-07-10 03:58:00,60.1,35.7,0.00,SSE,153,0.0,4.9,40,0.00,,,0.00,VWS V13.01,2013-07-10 10:58:00,
2013-07-10 04:03:00,60.1,36.3,0.00,SSE,154,3.6,4.5,41,0.00,,,0.00,VWS V13.01,2013-07-10 11:03:00,
2013-07-10 04:08:00,59.9,36.8,0.00,SSE,160,2.7,4.5,42,0.00,,,0.00,VWS V13.01,2013-07-10 11:08:00,
2013-07-10 04:13:00,59.7,37.2,0.00,SE,145,0.0,4.5,43,0.00,,,0.00,VWS V13.01,2013-07-10 11:13:00,
2013-07-10 04:18:00,59.7,37.2,0.00,SE,139,0.0,4.5,43,0.00,,,0.00,VWS V13.01,2013-07-10 11:18:00,
2013-07-10 04:23:00,59.5,37.6,0.00,SE,139,0.0,0.0,44,0.00,,,0.00,VWS V13.01,2013-07-10 11:23:00,
2013-07-10 04:28:00,59.4,38.0,0.00,SE,142,3.1,3.1,45,0.00,,,0.00,VWS V13.01,2013-07-10 11:28:00,
2013-07-10 04:33:00,59.4,39.2,0.00,SE,144,2.2,3.6,47,0.00,,,0.00,VWS V13.01,2013-07-10 11:33:00,
2013-07-10 04:38:00,59.4,39.2,0.00,SE,137,2.2,4.0,47,0.00,,,0.00,VWS V13.01,2013-07-10 11:38:00,
2013-07-10 04:43:00,59.4,39.2,0.00,SE,137,0.0,0.0,47,0.00,,,0.00,VWS V13.01,2013-07-10 11:43:00,
2013-07-10 04:48:00,59.4,39.7,0.00,SE,137,0.0,0.0,48,0.00,,,0.00,VWS V13.01,2013-07-10 11:48:00,
2013-07-10 04:53:00,59.4,39.7,0.00,ESE,112,0.0,0.0,48,0.00,,,0.00,VWS V13.01,2013-07-10 11:53:00,
2013-07-10 04:58:00,59.4,39.7,0.00,SSE,166,0.0,0.0,48,0.00,,,0.00,VWS V13.01,2013-07-10 11:58:00,
2013-07-10 05:03:00,59.2,39.0,0.00,SSE,166,0.0,0.0,47,0.00,,,0.00,VWS V13.01,2013-07-10 12:03:00,
2013-07-10 05:09:00,59.2,39.5,0.00,SSE,166,0.0,0.0,48,0.00,,,0.00,VWS V13.01,2013-07-10 12:09:00,
2013-07-10 05:14:00,59.2,40.0,0.00,SSE,165,0.0,0.0,49,0.00,,,0.00,VWS V13.01,2013-07-10 12:14:00,
2013-07-10 05:19:00,59.2,42.1,0.00,SE,146,2.2,3.6,53,0.00,,,0.00,VWS V13.01,2013-07-10 12:19:00,
2013-07-10 05:24:00,59.4,43.2,0.00,SSE,151,0.0,3.6,55,0.00,,,0.00,VWS V13.01,2013-07-10 12:24:00,
2013-07-10 05:29:00,59.4,43.7,0.00,SSE,162,3.6,4.0,56,0.00,,,0.00,VWS V13.01,2013-07-10 12:29:00,
2013-07-10 05:34:00,59.5,43.8,0.00,SSE,161,0.0,4.0,56,0.00,,,0.00,VWS V13.01,2013-07-10 12:34:00,
2013-07-10 05:39:00,59.4,43.7,0.00,SSE,163,0.0,4.0,56,0.00,,,0.00,VWS V13.01,2013-07-10 12:39:00,
2013-07-10 05:44:00,59.5,43.8,0.00,SE,141,0.0,3.1,56,0.00,,,0.00,VWS V13.01,2013-07-10 12:44:00,
2013-07-10 05:49:00,59.7,44.0,0.00,SSE,154,2.7,4.0,56,0.00,,,0.00,VWS V13.01,2013-07-10 12:49:00,
2013-07-10 05:54:00,60.6,43.9,0.00,SSE,150,2.7,4.0,54,0.00,,,0.00,VWS V13.01,2013-07-10 12:54:00,
2013-07-10 05:59:00,61.5,39.4,0.00,SE,133,0.0,4.0,44,0.00,,,0.00,VWS V13.01,2013-07-10 12:59:00,
2013-07-10 06:04:00,61.9,36.0,0.00,South,178,2.2,5.4,38,0.00,,,0.00,VWS V13.01,2013-07-10 13:04:00,
2013-07-10 06:09:00,61.7,35.9,0.00,SE,144,5.8,6.3,38,0.00,,,0.00,VWS V13.01,2013-07-10 13:09:00,
2013-07-10 06:14:00,62.4,35.8,0.00,SSE,147,4.0,6.3,37,0.00,,,0.00,VWS V13.01,2013-07-10 13:14:00,
2013-07-10 06:19:00,63.5,34.7,0.00,SE,138,3.6,6.3,34,0.00,,,0.00,VWS V13.01,2013-07-10 13:19:00,
2013-07-10 06:24:00,64.8,31.8,0.00,SSE,155,3.6,4.0,29,0.00,,,0.00,VWS V13.01,2013-07-10 13:24:00,
2013-07-10 06:29:00,65.5,29.7,0.00,SE,145,3.1,5.8,26,0.00,,,0.00,VWS V13.01,2013-07-10 13:29:00,
2013-07-10 06:34:00,65.5,29.7,0.00,SSE,166,3.6,5.8,26,0.00,,,0.00,VWS V13.01,2013-07-10 13:34:00,
2013-07-10 06:39:00,66.7,28.8,0.00,SE,136,3.6,5.8,24,0.00,,,0.00,VWS V13.01,2013-07-10 13:39:00,
2013-07-10 06:44:00,68.0,28.9,0.00,SSW,212,0.0,3.1,23,0.00,,,0.00,VWS V13.01,2013-07-10 13:44:00,
2013-07-10 06:49:00,70.7,26.5,0.00,SSE,158,3.6,3.6,19,0.00,,,0.00,VWS V13.01,2013-07-10 13:49:00,
2013-07-10 06:54:00,70.0,23.2,0.00,SSE,157,4.9,6.3,17,0.00,,,0.00,VWS V13.01,2013-07-10 13:54:00,
2013-07-10 06:59:00,70.0,23.2,0.00,SE,142,2.2,6.3,17,0.00,,,0.00,VWS V13.01,2013-07-10 13:59:00,
2013-07-10 07:04:00,68.2,25.6,0.00,West,263,0.0,4.0,20,0.00,,,0.00,VWS V13.01,2013-07-10 14:04:00,
2013-07-10 07:09:00,66.7,27.8,0.00,SE,136,2.7,4.9,23,0.00,,,0.00,VWS V13.01,2013-07-10 14:09:00,
2013-07-10 07:14:00,65.8,28.1,0.00,South,176,0.0,4.9,24,0.00,,,0.00,VWS V13.01,2013-07-10 14:14:00,
2013-07-10 07:19:00,64.8,28.1,0.00,SE,146,3.6,4.9,25,0.00,,,0.00,VWS V13.01,2013-07-10 14:19:00,
2013-07-10 07:24:00,63.1,31.2,0.00,SE,130,3.6,4.9,30,0.00,,,0.00,VWS V13.01,2013-07-10 14:24:00,
2013-07-10 07:29:00,62.8,33.3,0.00,SE,131,3.1,4.9,33,0.00,,,0.00,VWS V13.01,2013-07-10 14:29:00,
2013-07-10 07:34:00,62.8,33.3,0.00,ESE,118,2.7,5.8,33,0.00,,,0.00,VWS V13.01,2013-07-10 14:34:00,
2013-07-10 07:39:00,63.1,32.0,0.00,ESE,114,3.1,7.6,31,0.00,,,0.00,VWS V13.01,2013-07-10 14:39:00,
2013-07-10 07:44:00,63.3,32.2,0.00,SSE,165,6.3,6.3,31,0.00,,,0.00,VWS V13.01,2013-07-10 14:44:00,
2013-07-10 07:49:00,63.1,33.6,0.00,ESE,123,4.0,6.3,33,0.00,,,0.00,VWS V13.01,2013-07-10 14:49:00,
2013-07-10 07:54:00,62.6,33.1,0.00,SSE,163,4.9,6.3,33,0.00,,,0.00,VWS V13.01,2013-07-10 14:54:00,
2013-07-10 07:59:00,62.2,33.5,0.00,South,178,4.0,6.3,34,0.00,,,0.00,VWS V13.01,2013-07-10 14:59:00,
2013-07-10 08:04:00,61.9,33.2,0.00,SSE,149,3.1,5.8,34,0.00,,,0.00,VWS V13.01,2013-07-10 15:04:00,
2013-07-10 08:09:00,61.7,33.8,0.00,SSW,205,3.1,6.3,35,0.00,,,0.00,VWS V13.01,2013-07-10 15:09:00,
2013-07-10 08:14:00,62.1,34.1,0.00,SE,133,3.6,6.3,35,0.00,,,0.00,VWS V13.01,2013-07-10 15:14:00,
2013-07-10 08:19:00,63.7,34.1,0.00,South,169,3.6,6.3,33,0.00,,,0.00,VWS V13.01,2013-07-10 15:19:00,
2013-07-10 08:24:00,63.9,29.3,0.00,South,178,4.0,5.4,27,0.00,,,0.00,VWS V13.01,2013-07-10 15:24:00,
2013-07-10 08:29:00,63.7,30.9,0.00,WNW,293,3.6,5.4,29,0.00,,,0.00,VWS V13.01,2013-07-10 15:29:00,
2013-07-10 08:34:00,64.0,30.3,0.00,SE,127,4.0,5.4,28,0.00,,,0.00,VWS V13.01,2013-07-10 15:34:00,
2013-07-10 08:39:00,64.8,30.0,0.00,SE,135,2.7,8.7,27,0.00,,,0.00,VWS V13.01,2013-07-10 15:39:00,
2013-07-10 08:44:00,65.1,29.4,0.00,SE,128,3.1,4.9,26,0.00,,,0.00,VWS V13.01,2013-07-10 15:44:00,
2013-07-10 08:49:00,65.5,28.8,0.00,SE,126,3.1,4.9,25,0.00,,,0.00,VWS V13.01,2013-07-10 15:49:00,
2013-07-10 08:54:00,65.3,28.6,0.00,SSE,157,4.9,5.4,25,0.00,,,0.00,VWS V13.01,2013-07-10 15:54:00,
2013-07-10 08:59:00,64.8,28.1,0.00,SE,130,4.0,5.8,25,0.00,,,0.00,VWS V13.01,2013-07-10 15:59:00,
2013-07-10 09:04:00,64.2,28.6,0.00,ESE,120,2.7,6.3,26,0.00,,,0.00,VWS V13.01,2013-07-10 16:04:00,
2013-07-10 09:09:00,64.4,27.8,0.00,SE,127,2.7,6.3,25,0.00,,,0.00,VWS V13.01,2013-07-10 16:09:00,
2013-07-10 09:14:00,63.9,29.3,0.00,SE,127,2.7,6.3,27,0.00,,,0.00,VWS V13.01,2013-07-10 16:14:00,
2013-07-10 09:19:00,63.3,28.8,0.00,SE,141,3.1,7.6,27,0.00,,,0.00,VWS V13.01,2013-07-10 16:19:00,
2013-07-10 09:24:00,63.5,29.8,0.00,WSW,245,3.1,5.4,28,0.00,,,0.00,VWS V13.01,2013-07-10 16:24:00,
2013-07-10 09:29:00,63.3,28.8,0.00,South,176,3.6,5.4,27,0.00,,,0.00,VWS V13.01,2013-07-10 16:29:00,
2013-07-10 09:34:00,63.5,29.8,0.00,ESE,123,2.7,5.4,28,0.00,,,0.00,VWS V13.01,2013-07-10 16:34:00,
2013-07-10 09:39:00,63.1,28.6,0.00,ESE,112,0.0,5.8,27,0.00,,,0.00,VWS V13.01,2013-07-10 16:39:00,
2013-07-10 09:44:00,63.5,29.8,0.00,SE,132,0.0,0.0,28,0.00,,,0.00,VWS V13.01,2013-07-10 16:44:00,
2013-07-10 09:50:00,63.5,29.0,0.00,West,267,0.0,3.1,27,0.00,,,0.00,VWS V13.01,2013-07-10 16:50:00,
2013-07-10 09:55:00,63.5,29.0,0.00,SSE,152,0.0,4.9,27,0.00,,,0.00,VWS V13.01,2013-07-10 16:55:00,
2013-07-10 10:00:00,63.5,30.7,0.00,NNW,334,0.0,4.9,29,0.00,,,0.00,VWS V13.01,2013-07-10 17:00:00,
2013-07-10 10:05:00,63.5,30.7,0.00,SSE,166,0.0,4.0,29,0.00,,,0.00,VWS V13.01,2013-07-10 17:05:00,
2013-07-10 10:10:00,63.7,30.0,0.00,WSW,247,0.0,4.0,28,0.00,,,0.00,VWS V13.01,2013-07-10 17:10:00,
2013-07-10 10:15:00,63.9,29.3,0.00,SE,145,2.7,4.9,27,0.00,,,0.00,VWS V13.01,2013-07-10 17:15:00,
2013-07-10 10:20:00,63.5,28.0,0.00,WSW,252,0.0,4.9,26,0.00,,,0.00,VWS V13.01,2013-07-10 17:20:00,
2013-07-10 10:25:00,63.5,29.8,0.00,NNW,336,0.0,3.1,28,0.00,,,0.00,VWS V13.01,2013-07-10 17:25:00,
2013-07-10 10:30:00,63.5,29.8,0.00,NW,308,0.0,3.1,28,0.00,,,0.00,VWS V13.01,2013-07-10 17:30:00,
2013-07-10 10:35:00,63.7,30.9,0.00,SSE,164,3.6,3.6,29,0.00,,,0.00,VWS V13.01,2013-07-10 17:35:00,
2013-07-10 10:40:00,63.7,30.0,0.00,SSW,212,2.7,5.8,28,0.00,,,0.00,VWS V13.01,2013-07-10 17:40:00,
2013-07-10 10:45:00,63.7,30.0,0.00,South,176,0.0,5.4,28,0.00,,,0.00,VWS V13.01,2013-07-10 17:45:00,
2013-07-10 10:50:00,64.0,31.2,0.00,West,271,0.0,5.4,29,0.00,,,0.00,VWS V13.01,2013-07-10 17:50:00,
2013-07-10 10:55:00,63.9,29.3,0.00,SE,138,2.2,8.7,27,0.00,,,0.00,VWS V13.01,2013-07-10 17:55:00,
2013-07-10 11:00:00,64.2,29.6,0.00,WNW,299,0.0,8.7,27,0.00,,,0.00,VWS V13.01,2013-07-10 18:00:00,
2013-07-10 11:05:00,64.0,30.3,0.00,SE,139,4.9,5.4,28,0.00,,,0.00,VWS V13.01,2013-07-10 18:05:00,
2013-07-10 11:10:00,64.0,28.5,0.00,East,91,3.1,5.4,26,0.00,,,0.00,VWS V13.01,2013-07-10 18:10:00,
2013-07-10 11:15:00,64.2,28.6,0.00,SE,137,0.0,5.8,26,0.00,,,0.00,VWS V13.01,2013-07-10 18:15:00,
2013-07-10 11:20:00,64.4,28.8,0.00,SW,231,3.6,5.8,26,0.00,,,0.00,VWS V13.01,2013-07-10 18:20:00,
2013-07-10 11:25:00,64.6,28.0,0.00,South,185,3.6,5.4,25,0.00,,,0.00,VWS V13.01,2013-07-10 18:25:00,
2013-07-10 11:30:00,64.6,29.0,0.00,South,185,4.0,5.4,26,0.00,,,0.00,VWS V13.01,2013-07-10 18:30:00,
2013-07-10 11:35:00,64.6,28.0,0.00,SE,129,0.0,5.4,25,0.00,,,0.00,VWS V13.01,2013-07-10 18:35:00,
2013-07-10 11:40:00,64.8,28.1,0.00,SE,146,2.7,2.7,25,0.00,,,0.00,VWS V13.01,2013-07-10 18:40:00,
2013-07-10 11:45:00,64.4,27.8,0.00,South,173,0.0,4.5,25,0.00,,,0.00,VWS V13.01,2013-07-10 18:45:00,
2013-07-10 11:50:00,64.8,28.1,0.00,SSE,151,2.2,5.8,25,0.00,,,0.00,VWS V13.01,2013-07-10 18:50:00,
2013-07-10 11:55:00,64.6,28.0,0.00,SSE,159,0.0,5.8,25,0.00,,,0.00,VWS V13.01,2013-07-10 18:55:00,
2013-07-10 12:00:00,64.4,28.8,0.00,West,259,3.1,3.1,26,0.00,,,0.00,VWS V13.01,2013-07-10 19:00:00,
2013-07-10 12:05:00,64.4,28.8,0.00,SW,226,0.0,3.1,26,0.00,,,0.00,VWS V13.01,2013-07-10 19:05:00,
2013-07-10 12:10:00,64.4,28.8,0.00,SE,143,4.0,6.3,26,0.00,,,0.00,VWS V13.01,2013-07-10 19:10:00,
2013-07-10 12:15:00,63.7,28.2,0.00,South,172,0.0,6.3,26,0.00,,,0.00,VWS V13.01,2013-07-10 19:15:00,
2013-07-10 12:20:00,63.9,29.3,0.00,SE,130,0.0,0.0,27,0.00,,,0.00,VWS V13.01,2013-07-10 19:20:00,
2013-07-10 12:25:00,64.4,28.8,0.00,WNW,301,0.0,3.6,26,0.00,,,0.00,VWS V13.01,2013-07-10 19:25:00,
2013-07-10 12:30:00,64.8,28.1,0.00,West,279,0.0,3.6,25,0.00,,,0.00,VWS V13.01,2013-07-10 19:30:00,
2013-07-10 12:35:00,65.1,28.5,0.00,NW,314,2.7,3.6,25,0.00,,,0.00,VWS V13.01,2013-07-10 19:35:00,
2013-07-10 12:40:00,65.3,28.6,0.00,WSW,257,0.0,0.0,25,0.00,,,0.00,VWS V13.01,2013-07-10 19:40:00,
2013-07-10 12:45:00,65.5,28.8,0.00,SW,228,2.7,3.6,25,0.00,,,0.00,VWS V13.01,2013-07-10 19:45:00,
2013-07-10 12:50:00,65.7,28.9,0.00,WSW,250,0.0,4.0,25,0.00,,,0.00,VWS V13.01,2013-07-10 19:50:00,
2013-07-10 12:56:00,65.8,28.1,0.00,NW,312,0.0,5.8,24,0.00,,,0.00,VWS V13.01,2013-07-10 19:56:00,
2013-07-10 13:01:00,66.0,29.2,0.00,WSW,254,0.0,2.7,25,0.00,,,0.00,VWS V13.01,2013-07-10 20:01:00,
2013-07-10 13:06:00,66.4,28.5,0.00,WNW,288,0.0,2.7,24,0.00,,,0.00,VWS V13.01,2013-07-10 20:06:00,
2013-07-10 13:11:00,66.7,28.8,0.00,NNW,339,0.0,3.6,24,0.00,,,0.00,VWS V13.01,2013-07-10 20:11:00,
2013-07-10 13:16:00,66.9,27.9,0.00,SW,223,0.0,4.0,23,0.00,,,0.00,VWS V13.01,2013-07-10 20:16:00,
2013-07-10 13:21:00,66.9,27.9,0.00,East,99,0.0,0.0,23,0.00,,,0.00,VWS V13.01,2013-07-10 20:21:00,
2013-07-10 13:26:00,67.1,28.1,0.00,SE,142,3.6,4.9,23,0.00,,,0.00,VWS V13.01,2013-07-10 20:26:00,
2013-07-10 13:31:00,67.1,27.0,0.00,SE,138,2.2,5.8,22,0.00,,,0.00,VWS V13.01,2013-07-10 20:31:00,
2013-07-10 13:36:00,66.7,27.8,0.00,SE,126,2.7,5.8,23,0.00,,,0.00,VWS V13.01,2013-07-10 20:36:00,
2013-07-10 13:41:00,66.9,29.0,0.00,WSW,253,0.0,0.0,24,0.00,,,0.00,VWS V13.01,2013-07-10 20:41:00,
2013-07-10 13:46:00,67.3,28.2,0.00,SW,220,0.0,0.0,23,0.00,,,0.00,VWS V13.01,2013-07-10 20:46:00,
2013-07-10 13:51:00,67.3,27.2,0.00,SW,236,0.0,3.6,22,0.00,,,0.00,VWS V13.01,2013-07-10 20:51:00,
2013-07-10 13:56:00,67.5,28.4,0.00,West,278,0.0,3.6,23,0.00,,,0.00,VWS V13.01,2013-07-10 20:56:00,
2013-07-10 14:01:00,67.8,27.6,0.00,South,180,4.9,6.3,22,0.00,,,0.00,VWS V13.01,2013-07-10 21:01:00,
2013-07-10 14:06:00,68.0,25.5,0.00,WNW,301,0.0,6.3,20,0.00,,,0.00,VWS V13.01,2013-07-10 21:06:00,
2013-07-10 14:11:00,68.2,27.9,0.00,ESE,119,2.7,6.3,22,0.00,,,0.00,VWS V13.01,2013-07-10 21:11:00,
2013-07-10 14:16:00,68.4,28.1,0.00,SSE,164,2.7,6.3,22,0.00,,,0.00,VWS V13.01,2013-07-10 21:16:00,
2013-07-10 14:21:00,68.0,25.5,0.00,ESE,122,2.7,5.8,20,0.00,,,0.00,VWS V13.01,2013-07-10 21:21:00,
2013-07-10 14:26:00,68.0,27.8,0.00,North,1,0.0,5.8,22,0.00,,,0.00,VWS V13.01,2013-07-10 21:26:00,
2013-07-10 14:31:00,68.9,22.3,0.00,SW,218,2.7,5.8,17,0.00,,,0.00,VWS V13.01,2013-07-10 21:31:00,
2013-07-10 14:36:00,68.5,25.9,0.00,SE,146,0.0,5.8,20,0.00,,,0.00,VWS V13.01,2013-07-10 21:36:00,
2013-07-10 14:41:00,68.9,22.3,0.00,NW,314,0.0,3.1,17,0.00,,,0.00,VWS V13.01,2013-07-10 21:41:00,
2013-07-10 14:46:00,68.7,22.2,0.00,East,89,0.0,3.1,17,0.00,,,0.00,VWS V13.01,2013-07-10 21:46:00,
2013-07-10 14:51:00,68.5,22.0,0.00,ENE,78,2.7,3.6,17,0.00,,,0.00,VWS V13.01,2013-07-10 21:51:00,
2013-07-10 14:56:00,68.7,22.2,0.00,NW,307,0.0,3.6,17,0.00,,,0.00,VWS V13.01,2013-07-10 21:56:00,
2013-07-10 15:01:00,69.3,22.6,0.00,ENE,73,2.7,3.6,17,0.00,,,0.00,VWS V13.01,2013-07-10 22:01:00,
2013-07-10 15:06:00,69.3,22.6,0.00,ENE,65,2.7,4.0,17,0.00,,,0.00,VWS V13.01,2013-07-10 22:06:00,
2013-07-10 15:11:00,68.7,22.2,0.00,East,83,2.7,5.8,17,0.00,,,0.00,VWS V13.01,2013-07-10 22:11:00,
2013-07-10 15:16:00,68.7,22.2,0.00,East,88,0.0,5.8,17,0.00,,,0.00,VWS V13.01,2013-07-10 22:16:00,
2013-07-10 15:21:00,69.4,22.8,0.00,East,101,2.2,3.1,17,0.00,,,0.00,VWS V13.01,2013-07-10 22:21:00,
2013-07-10 15:26:00,70.2,23.4,0.00,North,11,0.0,3.6,17,0.00,,,0.00,VWS V13.01,2013-07-10 22:26:00,
2013-07-10 15:31:00,70.3,23.5,0.00,ENE,63,0.0,4.0,17,0.00,,,0.00,VWS V13.01,2013-07-10 22:31:00,
2013-07-10 15:36:00,70.5,23.6,0.00,North,7,0.0,4.0,17,0.00,,,0.00,VWS V13.01,2013-07-10 22:36:00,
2013-07-10 15:41:00,70.7,19.2,0.00,NNW,331,2.2,3.6,14,0.00,,,0.00,VWS V13.01,2013-07-10 22:41:00,
2013-07-10 15:46:00,70.7,23.8,0.00,North,353,0.0,4.0,17,0.00,,,0.00,VWS V13.01,2013-07-10 22:46:00,
2013-07-10 15:51:00,70.7,19.2,0.00,North,357,3.1,4.0,14,0.00,,,0.00,VWS V13.01,2013-07-10 22:51:00,
2013-07-10 15:56:00,70.7,23.8,0.00,North,3,3.6,4.0,17,0.00,,,0.00,VWS V13.01,2013-07-10 22:56:00,
2013-07-10 16:01:00,70.9,23.9,0.00,NNE,19,2.2,3.1,17,0.00,,,0.00,VWS V13.01,2013-07-10 23:01:00,
2013-07-10 16:06:00,71.2,24.2,0.00,NNE,15,2.2,3.1,17,0.00,,,0.00,VWS V13.01,2013-07-10 23:06:00,
2013-07-10 16:11:00,71.4,19.8,0.00,NNW,346,0.0,4.0,14,0.00,,,0.00,VWS V13.01,2013-07-10 23:11:00,
2013-07-10 16:17:00,71.4,19.8,0.00,North,0,0.0,4.0,14,0.00,,,0.00,VWS V13.01,2013-07-10 23:17:00,
2013-07-10 16:22:00,71.4,19.8,0.00,NNE,21,0.0,3.1,14,0.00,,,0.00,VWS V13.01,2013-07-10 23:22:00,
2013-07-10 16:27:00,71.2,24.2,0.00,NNW,334,0.0,3.1,17,0.00,,,0.00,VWS V13.01,2013-07-10 23:27:00,
2013-07-10 16:32:00,71.4,24.4,0.00,North,8,0.0,3.1,17,0.00,,,0.00,VWS V13.01,2013-07-10 23:32:00,
2013-07-10 16:37:00,71.4,24.4,0.00,NNE,19,0.0,3.1,17,0.00,,,0.00,VWS V13.01,2013-07-10 23:37:00,
2013-07-10 16:42:00,71.4,24.4,0.00,NE,38,2.7,3.6,17,0.00,,,0.00,VWS V13.01,2013-07-10 23:42:00,
2013-07-10 16:47:00,71.2,24.2,0.00,North,0,0.0,3.6,17,0.00,,,0.00,VWS V13.01,2013-07-10 23:47:00,
2013-07-10 16:52:00,71.4,24.4,0.00,ENE,67,0.0,3.6,17,0.00,,,0.00,VWS V13.01,2013-07-10 23:52:00,
2013-07-10 16:57:00,71.6,23.1,0.00,East,79,0.0,3.6,16,0.00,,,0.00,VWS V13.01,2013-07-10 23:57:00,
2013-07-10 17:02:00,71.2,24.2,0.00,NE,48,0.0,0.0,17,0.00,,,0.00,VWS V13.01,2013-07-11 00:02:00,
2013-07-10 17:07:00,71.1,24.1,0.00,East,88,2.7,4.0,17,0.00,,,0.00,VWS V13.01,2013-07-11 00:07:00,
2013-07-10 17:12:00,70.5,23.6,0.00,East,90,0.0,4.0,17,0.00,,,0.00,VWS V13.01,2013-07-11 00:12:00,
2013-07-10 17:17:00,70.5,23.6,0.00,ESE,119,2.2,4.0,17,0.00,,,0.00,VWS V13.01,2013-07-11 00:17:00,
2013-07-10 17:22:00,70.2,23.4,0.00,SSE,149,2.2,3.6,17,0.00,,,0.00,VWS V13.01,2013-07-11 00:22:00,
2013-07-10 17:27:00,70.0,23.2,0.00,East,87,3.6,3.6,17,0.00,,,0.00,VWS V13.01,2013-07-11 00:27:00,
2013-07-10 17:32:00,70.3,23.5,0.00,NNE,25,0.0,3.6,17,0.00,,,0.00,VWS V13.01,2013-07-11 00:32:00,
2013-07-10 17:37:00,70.9,23.9,0.00,North,0,2.7,3.6,17,0.00,,,0.00,VWS V13.01,2013-07-11 00:37:00,
2013-07-10 17:42:00,71.2,24.2,0.00,ENE,67,3.1,4.0,17,0.00,,,0.00,VWS V13.01,2013-07-11 00:42:00,
2013-07-10 17:47:00,70.9,23.9,0.00,NE,43,0.0,4.0,17,0.00,,,0.00,VWS V13.01,2013-07-11 00:47:00,
2013-07-10 17:52:00,71.1,24.1,0.00,ENE,58,0.0,4.0,17,0.00,,,0.00,VWS V13.01,2013-07-11 00:52:00,
2013-07-10 17:57:00,70.9,23.9,0.00,North,0,0.0,4.0,17,0.00,,,0.00,VWS V13.01,2013-07-11 00:57:00,
2013-07-10 18:02:00,70.7,23.8,0.00,NE,52,0.0,2.7,17,0.00,,,0.00,VWS V13.01,2013-07-11 01:02:00,
2013-07-10 18:07:00,70.7,23.8,0.00,North,353,0.0,2.7,17,0.00,,,0.00,VWS V13.01,2013-07-11 01:07:00,
2013-07-10 18:12:00,70.3,23.5,0.00,ENE,68,0.0,2.7,17,0.00,,,0.00,VWS V13.01,2013-07-11 01:12:00,
2013-07-10 18:17:00,70.0,23.2,0.00,SE,142,0.0,2.7,17,0.00,,,0.00,VWS V13.01,2013-07-11 01:17:00,
2013-07-10 18:22:00,70.0,23.2,0.00,NNE,25,0.0,0.0,17,0.00,,,0.00,VWS V13.01,2013-07-11 01:22:00,
2013-07-10 18:27:00,70.2,23.4,0.00,WNW,295,0.0,0.0,17,0.00,,,0.00,VWS V13.01,2013-07-11 01:27:00,
2013-07-10 18:32:00,70.2,23.4,0.00,WNW,295,0.0,0.0,17,0.00,,,0.00,VWS V13.01,2013-07-11 01:32:00,
2013-07-10 18:37:00,70.0,23.2,0.00,WNW,295,0.0,0.0,17,0.00,,,0.00,VWS V13.01,2013-07-11 01:37:00,
2013-07-10 18:42:00,70.0,23.2,0.00,WNW,295,0.0,0.0,17,0.00,,,0.00,VWS V13.01,2013-07-11 01:42:00,
2013-07-10 18:47:00,70.0,23.2,0.00,WNW,295,0.0,0.0,17,0.00,,,0.00,VWS V13.01,2013-07-11 01:47:00,
2013-07-10 18:52:00,70.0,25.9,0.00,WNW,295,0.0,0.0,19,0.00,,,0.00,VWS V13.01,2013-07-11 01:52:00,
2013-07-10 18:57:00,70.2,26.0,0.00,WNW,303,0.0,0.0,19,0.00,,,0.00,VWS V13.01,2013-07-11 01:57:00,
2013-07-10 19:02:00,70.5,26.3,0.00,North,5,0.0,0.0,19,0.00,,,0.00,VWS V13.01,2013-07-11 02:02:00,
2013-07-10 19:07:00,70.7,23.8,0.00,North,357,0.0,0.0,17,0.00,,,0.00,VWS V13.01,2013-07-11 02:07:00,
2013-07-10 19:12:00,70.7,23.8,0.00,North,357,0.0,0.0,17,0.00,,,0.00,VWS V13.01,2013-07-11 02:12:00,
2013-07-10 19:17:00,70.7,23.8,0.00,NNW,341,0.0,0.0,17,0.00,,,0.00,VWS V13.01,2013-07-11 02:17:00,
2013-07-10 19:22:00,70.7,23.8,0.00,NNW,330,0.0,0.0,17,0.00,,,0.00,VWS V13.01,2013-07-11 02:22:00,
2013-07-10 19:27:00,70.7,23.8,0.00,North,357,0.0,0.0,17,0.00,,,0.00,VWS V13.01,2013-07-11 02:27:00,
2013-07-10 19:32:00,70.7,23.8,0.00,North,357,0.0,0.0,17,0.00,,,0.00,VWS V13.01,2013-07-11 02:32:00,
2013-07-10 19:37:00,70.7,23.8,0.00,North,10,0.0,0.0,17,0.00,,,0.00,VWS V13.01,2013-07-11 02:37:00,
2013-07-10 19:42:00,70.7,23.8,0.00,North,353,0.0,0.0,17,0.00,,,0.00,VWS V13.01,2013-07-11 02:42:00,
2013-07-10 19:47:00,70.7,23.8,0.00,North,353,0.0,0.0,17,0.00,,,0.00,VWS V13.01,2013-07-11 02:47:00,
2013-07-10 19:52:00,70.7,23.8,0.00,West,279,0.0,0.0,17,0.00,,,0.00,VWS V13.01,2013-07-11 02:52:00,
2013-07-10 19:57:00,70.7,23.8,0.00,WNW,289,0.0,0.0,17,0.00,,,0.00,VWS V13.01,2013-07-11 02:57:00,
2013-07-10 20:02:00,70.7,23.8,0.00,WNW,289,0.0,0.0,17,0.00,,,0.00,VWS V13.01,2013-07-11 03:02:00,
2013-07-10 20:08:00,70.7,23.8,0.00,NNW,329,0.0,0.0,17,0.00,,,0.00,VWS V13.01,2013-07-11 03:08:00,
2013-07-10 20:13:00,70.7,23.8,0.00,WNW,287,0.0,0.0,17,0.00,,,0.00,VWS V13.01,2013-07-11 03:13:00,
2013-07-10 20:18:00,70.7,23.8,0.00,WNW,301,0.0,0.0,17,0.00,,,0.00,VWS V13.01,2013-07-11 03:18:00,
2013-07-10 20:23:00,70.7,23.8,0.00,WNW,301,0.0,0.0,17,0.00,,,0.00,VWS V13.01,2013-07-11 03:23:00,
2013-07-10 20:28:00,70.7,23.8,0.00,WNW,301,0.0,0.0,17,0.00,,,0.00,VWS V13.01,2013-07-11 03:28:00,
2013-07-10 20:33:00,70.7,23.8,0.00,WNW,301,0.0,0.0,17,0.00,,,0.00,VWS V13.01,2013-07-11 03:33:00,
2013-07-10 20:38:00,70.7,23.8,0.00,WNW,301,0.0,0.0,17,0.00,,,0.00,VWS V13.01,2013-07-11 03:38:00,
2013-07-10 20:43:00,70.7,23.8,0.00,WNW,301,0.0,0.0,17,0.00,,,0.00,VWS V13.01,2013-07-11 03:43:00,
2013-07-10 20:48:00,70.7,23.8,0.00,WNW,301,0.0,0.0,17,0.00,,,0.00,VWS V13.01,2013-07-11 03:48:00,
2013-07-10 20:53:00,70.7,23.8,0.00,WNW,301,0.0,0.0,17,0.00,,,0.00,VWS V13.01,2013-07-11 03:53:00,
2013-07-10 20:58:00,67.8,25.3,0.00,WNW,301,0.0,0.0,20,0.00,,,0.00,VWS V13.01,2013-07-11 03:58:00,
2013-07-10 21:01:00,67.8,25.3,0.00,West,262,0.0,0.0,20,0.00,,,0.00,VWS V13.01,2013-07-11 04:01:00,
2013-07-10 21:02:00,67.5,27.3,0.00,West,262,0.0,0.0,22,0.00,,,0.00,VWS V13.01,2013-07-11 04:02:00,
2013-07-10 21:05:00,67.5,27.3,0.00,West,262,0.0,0.0,22,0.00,,,0.00,VWS V13.01,2013-07-11 04:05:00,
2013-07-10 21:06:00,67.5,27.3,0.00,West,262,0.0,0.0,22,0.00,,,0.00,VWS V13.01,2013-07-11 04:06:00,
2013-07-10 21:11:00,67.1,28.1,0.00,West,262,0.0,0.0,23,0.00,,,0.00,VWS V13.01,2013-07-11 04:11:00,
2013-07-10 21:16:00,67.1,28.1,0.00,West,262,0.0,0.0,23,0.00,,,0.00,VWS V13.01,2013-07-11 04:16:00,
2013-07-10 21:17:00,67.1,28.1,0.00,West,262,0.0,0.0,23,0.00,,,0.00,VWS V13.01,2013-07-11 04:17:00,
2013-07-10 21:22:00,66.6,27.6,0.00,West,262,0.0,0.0,23,0.00,,,0.00,VWS V13.01,2013-07-11 04:22:00,
2013-07-10 21:27:00,66.6,27.6,0.00,West,262,0.0,0.0,23,0.00,,,0.00,VWS V13.01,2013-07-11 04:27:00,
2013-07-10 21:32:00,66.4,27.5,0.00,West,262,0.0,0.0,23,0.00,,,0.00,VWS V13.01,2013-07-11 04:32:00,
2013-07-10 21:37:00,66.6,27.6,0.00,West,262,0.0,0.0,23,0.00,,,0.00,VWS V13.01,2013-07-11 04:37:00,
2013-07-10 21:42:00,66.6,27.6,0.00,West,262,0.0,0.0,23,0.00,,,0.00,VWS V13.01,2013-07-11 04:42:00,
2013-07-10 21:47:00,66.4,27.5,0.00,West,262,0.0,0.0,23,0.00,,,0.00,VWS V13.01,2013-07-11 04:47:00,
2013-07-10 21:52:00,66.4,27.5,0.00,West,262,0.0,0.0,23,0.00,,,0.00,VWS V13.01,2013-07-11 04:52:00,
2013-07-10 21:57:00,66.0,28.2,0.00,West,262,0.0,0.0,24,0.00,,,0.00,VWS V13.01,2013-07-11 04:57:00,
2013-07-10 22:02:00,66.0,28.2,0.00,West,262,0.0,0.0,24,0.00,,,0.00,VWS V13.01,2013-07-11 05:02:00,
2013-07-10 22:07:00,66.0,28.2,0.00,West,262,0.0,0.0,24,0.00,,,0.00,VWS V13.01,2013-07-11 05:07:00,
2013-07-10 22:12:00,66.0,28.2,0.00,West,262,0.0,0.0,24,0.00,,,0.00,VWS V13.01,2013-07-11 05:12:00,
2013-07-10 22:17:00,66.0,28.2,0.00,West,262,0.0,0.0,24,0.00,,,0.00,VWS V13.01,2013-07-11 05:17:00,
2013-07-10 22:22:00,66.0,28.2,0.00,West,262,0.0,0.0,24,0.00,,,0.00,VWS V13.01,2013-07-11 05:22:00,
2013-07-10 22:27:00,66.0,28.2,0.00,West,262,0.0,0.0,24,0.00,,,0.00,VWS V13.01,2013-07-11 05:27:00,
2013-07-10 22:32:00,66.0,28.2,0.00,West,262,0.0,0.0,24,0.00,,,0.00,VWS V13.01,2013-07-11 05:32:00,
2013-07-10 22:37:00,66.0,28.2,0.00,West,262,0.0,0.0,24,0.00,,,0.00,VWS V13.01,2013-07-11 05:37:00,
2013-07-10 22:42:00,66.0,28.2,0.00,North,0,0.0,0.0,24,0.00,,,0.00,VWS V13.01,2013-07-11 05:42:00,
2013-07-10 22:47:00,66.0,28.2,0.00,North,0,0.0,0.0,24,0.00,,,0.00,VWS V13.01,2013-07-11 05:47:00,
2013-07-10 22:52:00,66.0,28.2,0.00,North,357,0.0,0.0,24,0.00,,,0.00,VWS V13.01,2013-07-11 05:52:00,
2013-07-10 22:57:00,66.0,28.2,0.00,North,357,0.0,0.0,24,0.00,,,0.00,VWS V13.01,2013-07-11 05:57:00,
2013-07-10 23:02:00,66.0,28.2,0.00,NNW,333,0.0,0.0,24,0.00,,,0.00,VWS V13.01,2013-07-11 06:02:00,
2013-07-10 23:07:00,66.0,28.2,0.00,WNW,292,0.0,0.0,24,0.00,,,0.00,VWS V13.01,2013-07-11 06:07:00,
2013-07-10 23:12:00,66.0,28.2,0.00,NNW,338,0.0,0.0,24,0.00,,,0.00,VWS V13.01,2013-07-11 06:12:00,
2013-07-10 23:17:00,66.0,28.2,0.00,North,2,2.2,2.2,24,0.00,,,0.00,VWS V13.01,2013-07-11 06:17:00,
2013-07-10 23:22:00,62.4,26.2,0.00,North,2,2.2,2.2,25,0.00,,,0.00,VWS V13.01,2013-07-11 06:22:00,
2013-07-10 23:27:00,62.4,26.2,0.00,NNE,21,4.0,4.0,25,0.00,,,0.00,VWS V13.01,2013-07-11 06:27:00,
2013-07-10 23:32:00,62.4,26.2,0.00,NE,41,3.1,4.0,25,0.00,,,0.00,VWS V13.01,2013-07-11 06:32:00,
2013-07-10 23:37:00,62.4,26.2,0.00,North,357,3.1,4.0,25,0.00,,,0.00,VWS V13.01,2013-07-11 06:37:00,
2013-07-10 23:42:00,62.4,26.2,0.00,North,0,3.6,3.6,25,0.00,,,0.00,VWS V13.01,2013-07-11 06:42:00,
2013-07-10 23:47:00,62.4,26.2,0.00,NNW,332,2.7,3.6,25,0.00,,,0.00,VWS V13.01,2013-07-11 06:47:00,
2013-07-10 23:52:00,62.4,26.2,0.00,NE,45,0.0,3.6,25,0.00,,,0.00,VWS V13.01,2013-07-11 06:52:00,
2013-07-10 23:57:00,61.0,24.9,0.00,NE,45,0.0,3.6,25,0.00,,,0.00,VWS V13.01,2013-07-11 06:57:00,